Bob Sikes Airport Crestview US
ICAO: KCEW
IATA: CEW
Category: Medium
Scheduled Services: No

Elevation: 213 ft
TransAlt. 18000 ft.

Airport Communications:
EGLIN APP/DEP:124.05
ASOS:119.275
GAINESVILLE RDO:122
CTAF/UNICOM:122.95

KCEW Zoom In..

If you have problems with the map follow the link
https://www.worldairports.se/pages/airport.php?
ICAO=KCEW

Runways:

(A) RW 17 length 8004 ft width 150 ft
ILS 111.90 / hdg 171

(B) RW 35 length 8004 ft width 150 ft
---- / hdg 351

Location; KCEW
Day. 19 / Time. 15.53 Zulu
* Altimeter: 30.28
* Temperature: 09° c. 48.2°f.
* Wind from: 350° Speed 12 kn with Gusts up to 21 kn.
Dewpoint: 01° c.
Visibility: 10 Statute Miles.
Clouds: Few 8500 ft.

KCEW 191553Z AUTO 35012G21KT 10SM FEW085 09/01 A3028 RMK AO2 SLP252 T00890006


Wind From 350°
Speed 12 kn.

 
 
jpsmedia worldairports.se 2020   terms of use